WetterOnline ( https://www.wetteronline.ch )

Wetter aktuell Regen

Aktuelles Wetter: Zwiesel (613m)

6-stündlich | Neueste Meldungen
Ortszeit Temperatur Wetter
Mi, 22.01. 19:00 -4.0° C bedeckt
Mi, 22.01. 13:00 -4.7° C bedeckt
Mi, 22.01. 7:00 -6.4° C Schneegriesel
Mi, 22.01. 1:00 -4.8° C Nebel
Di, 21.01. 19:00 -3.4° C wolkenlos
Di, 21.01. 13:00 2.8° C wolkenlos
Di, 21.01. 7:00 -9.5° C wolkenlos
Di, 21.01. 1:00 -3.6° C wolkenlos
Ortszeit Temperatur Wetter
Mi, 22.01. 20:00 -4.1° C bedeckt
Mi, 22.01. 19:50 -4.1° C bedeckt
Mi, 22.01. 19:40 -4.1° C bedeckt
Mi, 22.01. 19:30 -4.1° C bedeckt
Mi, 22.01. 19:20 -4.1° C bedeckt
Mi, 22.01. 19:10 -4.1° C bedeckt
Mi, 22.01. 19:00 -4.0° C bedeckt
Mi, 22.01. 18:30 -4.0° C bedeckt
Mi, 22.01. 18:00 -3.9° C bedeckt
Mi, 22.01. 17:30 -3.9° C bedeckt
Mi, 22.01. 17:00 -3.9° C bedeckt
Ortszeit Relative Feuchte Sichtweite
Mi, 22.01. 19:00 95% 4.1 km
Mi, 22.01. 13:00 92% 6 km
Mi, 22.01. 7:00 93% 5.0 km
Mi, 22.01. 1:00 95% 0.3 km
Di, 21.01. 19:00 96% 17 km
Di, 21.01. 13:00 50% 50 km
Di, 21.01. 7:00 92% 35 km
Di, 21.01. 1:00 82% 55 km
Ortszeit Relative Feuchte Sichtweite
Mi, 22.01. 20:00 95% 3.5 km
Mi, 22.01. 19:50 95% -
Mi, 22.01. 19:40 95% -
Mi, 22.01. 19:30 95% 4.0 km
Mi, 22.01. 19:20 95% -
Mi, 22.01. 19:10 95% -
Mi, 22.01. 19:00 95% 4.1 km
Mi, 22.01. 18:30 95% 4.6 km
Mi, 22.01. 18:00 95% 5.0 km
Mi, 22.01. 17:30 95% 4.9 km
Mi, 22.01. 17:00 94% 7 km
Ortszeit Niederschlagsmenge Niederschlagsart
Mi, 22.01. 19:00 0.1 l/m2 in 12 Std. Schnee
Mi, 22.01. 13:00 0.1 l/m2 in 6 Std. Schnee, Sprühregen
Mi, 22.01. 7:00 0.1 l/m2 in 12 Std. Schnee
Mi, 22.01. 1:00 0.0 l/m2 in 6 Std. -
Di, 21.01. 19:00 0.0 l/m2 in 12 Std. -
Di, 21.01. 13:00 0.0 l/m2 in 6 Std. -
Di, 21.01. 7:00 0.0 l/m2 in 12 Std. -
Di, 21.01. 1:00 0.0 l/m2 in 6 Std. -
Ortszeit Niederschlagsmenge Niederschlagsart
Mi, 22.01. 20:00 0.0 l/m2 in 1 Std. -
Mi, 22.01. 19:50 keine Meldung -
Mi, 22.01. 19:40 keine Meldung -
Mi, 22.01. 19:30 0.0 l/m2 in 1 Std. -
Mi, 22.01. 19:20 keine Meldung -
Mi, 22.01. 19:10 keine Meldung -
Mi, 22.01. 19:00 0.1 l/m2 in 1 Std. Schnee
Mi, 22.01. 18:30 0.0 l/m2 in 1 Std. -
Mi, 22.01. 18:00 0.0 l/m2 in 1 Std. -
Mi, 22.01. 17:30 0.0 l/m2 in 1 Std. -
Mi, 22.01. 17:00 0.0 l/m2 in 1 Std. -
Ortszeit Stärke Spitze Richtung
km/h Bft. km/h Grad Sektor
Mi, 22.01. 19:00 4 1 11 290° W
Mi, 22.01. 13:00 4 1 7 270° W
Mi, 22.01. 7:00 4 1 7 40° NO
Mi, 22.01. 1:00 4 1 7 60° NO
Di, 21.01. 19:00 2 1 9 100° O
Di, 21.01. 13:00 4 1 7 210° SW
Di, 21.01. 7:00 0 0 14 - -
Di, 21.01. 1:00 7 2 22 50° NO
Ortszeit Stärke Spitze Richtung
km/h Bft. km/h Grad Sektor
Mi, 22.01. 20:00 4 1 7 20° N
Mi, 22.01. 19:50 4 1 - 20° N
Mi, 22.01. 19:40 4 1 - 300° NW
Mi, 22.01. 19:30 4 1 7 300° NW
Mi, 22.01. 19:20 4 1 - 300° NW
Mi, 22.01. 19:10 4 1 - 300° NW
Mi, 22.01. 19:00 4 1 7 290° W
Mi, 22.01. 18:30 4 1 7 210° SW
Mi, 22.01. 18:00 4 1 7 160° S
Mi, 22.01. 17:30 2 1 7 180° S
Mi, 22.01. 17:00 4 1 7 150° SO
Ortszeit Untergrenze Bedeckung Gattung
total tief tief mittel hoch
Mi, 22.01. 19:00 90 m 8/8 8/8 - - -
Mi, 22.01. 13:00 90 m 8/8 8/8 - - -
Mi, 22.01. 7:00 30 m 8/8 8/8 - - -
Mi, 22.01. 1:00 <30 m 8/8 0/8 - - -
Di, 21.01. 19:00 - 0/8 0/8 - - -
Di, 21.01. 13:00 - 0/8 0/8 - - -
Di, 21.01. 7:00 - 0/8 0/8 - - -
Di, 21.01. 1:00 - 0/8 0/8 - - -
Ortszeit Bedeckungsgrad in Achtel und Wolkenuntergrenze
Mi, 22.01. 20:00 8(60m)
Mi, 22.01. 19:50 8(60m)
Mi, 22.01. 19:40 8(60m)
Mi, 22.01. 19:30 8(60m)
Mi, 22.01. 19:20 8(60m)
Mi, 22.01. 19:10 8(60m)
Mi, 22.01. 19:00 8(90m)
Mi, 22.01. 18:30 8(60m)
Mi, 22.01. 18:00 8(60m)
Mi, 22.01. 17:30 8(60m)
Mi, 22.01. 17:00 8(90m)
Ortszeit Luftdruck NN (hPa) Tendenz (hPa in 3 Std.)
Mi, 22.01. 19:00 1037 + 1,4
Mi, 22.01. 13:00 1037 - 0,7
Mi, 22.01. 7:00 1038 - 0,4
Mi, 22.01. 1:00 1040 - 1,3
Di, 21.01. 19:00 1041 - 0,5
Di, 21.01. 13:00 1042 - 1,3
Di, 21.01. 7:00 1047 - 0,3
Di, 21.01. 1:00 1047 - 1,2
Ortszeit Luftdruck NN (hPa) Tendenz (hPa in 3 Std.)
Mi, 22.01. 20:00 1037 + 1,4
Mi, 22.01. 19:50 1037 keine Meldung
Mi, 22.01. 19:40 1037 keine Meldung
Mi, 22.01. 19:30 1037 + 1,2
Mi, 22.01. 19:20 1037 keine Meldung
Mi, 22.01. 19:10 1037 keine Meldung
Mi, 22.01. 19:00 1037 + 1,4
Mi, 22.01. 18:30 1037 + 1,1
Mi, 22.01. 18:00 1037 + 0,9
Mi, 22.01. 17:30 1036 + 0,4
Mi, 22.01. 17:00 1036 - 0,5
Ortszeit Schneehöhe (cm)
Mi, 22.01. 19:00 1
Mi, 22.01. 13:00 1
Mi, 22.01. 7:00 3
Mi, 22.01. 1:00 3
Di, 21.01. 19:00 3
Di, 21.01. 13:00 3
Di, 21.01. 7:00 3
Di, 21.01. 1:00 3
Ortszeit Schneehöhe (cm)
Mi, 22.01. 20:00 1
Mi, 22.01. 19:50 1
Mi, 22.01. 19:40 1
Mi, 22.01. 19:30 1
Mi, 22.01. 19:20 1
Mi, 22.01. 19:10 1
Mi, 22.01. 19:00 1
Mi, 22.01. 18:30 1
Mi, 22.01. 18:00 1
Mi, 22.01. 17:30 1
Mi, 22.01. 17:00 1
Link zu dieser Seite / Seite empfehlen

Das Wetter in ...